createdAt,value
2019-04-20T00:00:52.889Z,1022.6
2019-04-20T00:01:50.471Z,1022.48
2019-04-20T00:02:53.240Z,1022.73
2019-04-20T00:03:50.530Z,1023.19
2019-04-20T00:04:49.510Z,1022.67
2019-04-20T00:05:49.436Z,1021.99
2019-04-20T00:06:51.577Z,1021.55
2019-04-20T00:07:50.157Z,1020.65
2019-04-20T00:08:55.351Z,1019.74
2019-04-20T00:09:56.209Z,1018.77
2019-04-20T00:10:56.831Z,1017.9
2019-04-20T00:12:03.707Z,1016.68
2019-04-20T00:13:28.509Z,1014.75
2019-04-20T00:14:28.812Z,1013.69
2019-04-20T00:15:24.350Z,1012.53
2019-04-20T00:16:25.151Z,1011.37
2019-04-20T00:17:25.451Z,1010.03
2019-04-20T00:18:25.619Z,1009.09
2019-04-20T00:19:31.796Z,1008.15
2019-04-20T00:20:29.079Z,1007.21
2019-04-20T00:21:24.708Z,1006.5
2019-04-20T00:22:31.282Z,1005.82
2019-04-20T00:23:29.186Z,1004.67
2019-04-20T00:24:28.939Z,1004.18
2019-04-20T00:25:38.487Z,1003.88
2019-04-20T00:27:31.144Z,1003.72
2019-04-20T00:29:29.091Z,1002.58
2019-04-20T00:31:29.494Z,1001.35
2019-04-20T00:32:53.168Z,1001.35
2019-04-20T00:34:15.445Z,1000.55
2019-04-20T00:35:08.191Z,1000.39
2019-04-20T00:36:08.812Z,999.34
2019-04-20T00:37:08.696Z,998.35
2019-04-20T00:38:07.783Z,997.09
2019-04-20T00:39:09.809Z,995.45
2019-04-20T00:40:07.836Z,994.26
2019-04-20T00:41:10.790Z,993.09
2019-04-20T00:42:11.090Z,991.99
2019-04-20T00:43:08.603Z,990.76
2019-04-20T00:44:12.923Z,990
2019-04-20T00:45:11.870Z,988.36
2019-04-20T00:46:16.471Z,987.28
2019-04-20T00:47:36.746Z,986.15
2019-04-20T00:48:50.372Z,984.79
2019-04-20T00:50:28.054Z,983.83
2019-04-20T00:52:49.880Z,982.32
2019-04-20T00:53:51.729Z,981.51
2019-04-20T00:54:49.412Z,981.18
2019-04-20T00:55:48.539Z,981.64
2019-04-20T00:56:48.365Z,981.01
2019-04-20T00:57:55.171Z,980.11
2019-04-20T00:59:07.952Z,978.99
2019-04-20T01:01:19.773Z,977.32
2019-04-20T01:03:04.167Z,975.17
2019-04-20T01:05:03.826Z,973.19
2019-04-20T01:06:57.350Z,971.25
2019-04-20T01:07:59.981Z,970.51
2019-04-20T01:08:57.024Z,968.9
2019-04-20T01:09:56.237Z,968.06
2019-04-20T01:10:57.413Z,966.52
2019-04-20T01:11:56.578Z,965.59
2019-04-20T01:13:01.051Z,964.15
2019-04-20T01:14:02.142Z,962.85
2019-04-20T01:15:00.981Z,961.6
2019-04-20T01:16:01.682Z,960.6
2019-04-20T01:17:11.133Z,959.45
2019-04-20T01:18:01.475Z,958.44
2019-04-20T01:19:00.639Z,957.71
2019-04-20T01:20:00.666Z,956.6
2019-04-20T01:21:06.336Z,955.59
2019-04-20T01:22:05.147Z,954.12
2019-04-20T01:23:07.328Z,953.53
2019-04-20T01:24:03.429Z,952.22
2019-04-20T01:25:09.517Z,951.3
2019-04-20T01:26:06.013Z,950.35
2019-04-20T01:27:03.516Z,949.21
2019-04-20T01:28:46.209Z,947.94
2019-04-20T01:30:02.353Z,946.98
2019-04-20T01:31:14.576Z,946.06
2019-04-20T01:32:34.139Z,945.79
2019-04-20T01:34:08.127Z,945.13
2019-04-20T01:35:56.502Z,944.6
2019-04-20T01:37:52.666Z,944.23
2019-04-20T01:39:31.593Z,943.53
2019-04-20T01:40:25.352Z,943.75
2019-04-20T01:41:24.975Z,943.63
2019-04-20T01:42:25.477Z,943.06
2019-04-20T01:43:24.946Z,943.59
2019-04-20T01:44:31.564Z,943.53
2019-04-20T01:45:29.212Z,943.85
2019-04-20T01:46:27.043Z,944.23
2019-04-20T01:47:31.838Z,944.94
2019-04-20T01:48:28.606Z,945.24
2019-04-20T01:49:27.404Z,945.82
2019-04-20T01:50:28.324Z,947.06
2019-04-20T01:51:30.400Z,947.53
2019-04-20T01:52:42.436Z,948.61
2019-04-20T01:54:20.180Z,949.86
2019-04-20T01:56:21.595Z,950.95
2019-04-20T01:58:04.718Z,951.65
2019-04-20T01:59:45.857Z,952.47
2019-04-20T02:00:41.877Z,952.8
2019-04-20T02:01:41.140Z,952.31
2019-04-20T02:02:44.748Z,952.8
2019-04-20T02:03:43.670Z,952.89
2019-04-20T02:04:43.222Z,953.46
2019-04-20T02:05:40.348Z,953.81
2019-04-20T02:06:46.157Z,953.42
2019-04-20T02:07:44.363Z,953.77
2019-04-20T02:08:40.023Z,952.9
2019-04-20T02:09:46.372Z,951.53
2019-04-20T02:10:45.902Z,950.93
2019-04-20T02:11:42.674Z,950.56
2019-04-20T02:12:40.768Z,950.32
2019-04-20T02:13:44.285Z,950.61
2019-04-20T02:14:45.267Z,950.51
2019-04-20T02:15:45.046Z,950.6
2019-04-20T02:16:43.919Z,950.58
2019-04-20T02:18:03.015Z,950.67
2019-04-20T02:19:46.124Z,950.8
2019-04-20T02:21:58.759Z,951.17
2019-04-20T02:23:38.397Z,950.68
2019-04-20T02:24:29.900Z,950.86
2019-04-20T02:25:29.024Z,950.12
2019-04-20T02:26:30.108Z,949.89
2019-04-20T02:27:36.661Z,949.97
2019-04-20T02:29:23.405Z,949.31
2019-04-20T02:33:16.399Z,946.03
2019-04-20T02:36:40.022Z,944.39
2019-04-20T02:39:59.715Z,943
2019-04-20T02:46:55.127Z,936.01
2019-04-20T02:50:28.063Z,934.2
2019-04-20T02:54:00.164Z,932.3
2019-04-20T03:00:33.449Z,926.43
2019-04-20T03:02:42.334Z,925.37
2019-04-20T03:03:56.538Z,925.43
2019-04-20T03:05:12.061Z,924.8
2019-04-20T03:06:44.314Z,923.06
2019-04-20T03:08:42.856Z,922.05
2019-04-20T03:11:20.709Z,920.79
2019-04-20T03:14:01.995Z,918.46
2019-04-20T03:16:03.294Z,917.4
2019-04-20T03:18:19.037Z,915.94
2019-04-20T03:19:55.443Z,914.74
2019-04-20T03:22:20.864Z,912.62
2019-04-20T03:25:29.466Z,911.34
2019-04-20T03:27:32.868Z,909.34
2019-04-20T03:29:36.751Z,907.8
2019-04-20T03:33:30.618Z,904.65
2019-04-20T03:36:46.734Z,901.99
2019-04-20T03:39:12.531Z,900.82
2019-04-20T03:40:48.198Z,900.45
2019-04-20T03:41:51.449Z,899.53
2019-04-20T03:42:48.549Z,898.18
2019-04-20T03:43:47.694Z,898.18
2019-04-20T03:44:52.831Z,897.31
2019-04-20T03:45:54.172Z,897.34
2019-04-20T03:46:52.957Z,896.83
2019-04-20T03:48:02.915Z,895.97
2019-04-20T03:50:17.848Z,894.35
2019-04-20T03:52:30.827Z,892.46
2019-04-20T03:54:34.268Z,890.85
2019-04-20T03:56:33.350Z,890.73
2019-04-20T03:59:00.786Z,888.81
2019-04-20T04:01:09.218Z,888.4
2019-04-20T04:04:33.454Z,885.08
2019-04-20T04:06:14.695Z,882.44
2019-04-20T04:07:15.243Z,880.41
2019-04-20T04:08:21.130Z,877.29
2019-04-20T04:09:44.586Z,876.41
2019-04-20T04:11:48.168Z,874.99
2019-04-20T04:12:46.703Z,873.64
2019-04-20T04:13:43.843Z,873.44
2019-04-20T04:14:45.039Z,873.55
2019-04-20T04:15:50.009Z,874.17
2019-04-20T04:16:49.703Z,874.42
2019-04-20T04:17:45.412Z,874.1
2019-04-20T04:18:47.275Z,873.59
2019-04-20T04:19:51.048Z,872.5
2019-04-20T04:20:51.210Z,871.74
2019-04-20T04:22:08.502Z,870.39
2019-04-20T04:23:54.135Z,867.73
2019-04-20T04:25:24.838Z,864.42
2019-04-20T04:27:11.837Z,863.65
2019-04-20T04:29:19.005Z,863.3
2019-04-20T04:31:20.086Z,862.26
2019-04-20T04:34:22.436Z,861.42
2019-04-20T04:36:09.724Z,861.14
2019-04-20T04:38:17.279Z,862.73
2019-04-20T04:40:55.008Z,861.58
2019-04-20T04:43:15.476Z,860.74
2019-04-20T04:44:53.456Z,861.1
2019-04-20T04:45:44.675Z,860.42
2019-04-20T04:46:50.993Z,861.13
2019-04-20T04:47:45.014Z,861.42
2019-04-20T04:48:46.329Z,860.96
2019-04-20T04:49:49.904Z,862.08
2019-04-20T04:50:50.601Z,862.6
2019-04-20T04:51:51.838Z,863.27
2019-04-20T04:52:56.388Z,863.85
2019-04-20T04:54:13.669Z,863.98
2019-04-20T04:55:35.125Z,864.4
2019-04-20T04:56:26.743Z,864.85
2019-04-20T04:57:24.422Z,865.09
2019-04-20T04:58:25.591Z,865.24
2019-04-20T04:59:25.673Z,865.89
2019-04-20T05:00:27.762Z,866.63
2019-04-20T05:01:28.513Z,866.8
2019-04-20T05:02:29.576Z,866.87
2019-04-20T05:03:44.517Z,867.82
2019-04-20T05:05:40.940Z,869.75
2019-04-20T05:07:43.326Z,872.69
2019-04-20T05:08:47.274Z,874.3
2019-04-20T05:09:42.858Z,875.47
2019-04-20T05:10:43.648Z,877.06
2019-04-20T05:11:42.816Z,878.23
2019-04-20T05:12:43.903Z,880.39
2019-04-20T05:13:50.435Z,880.92
2019-04-20T05:14:54.625Z,881.85
2019-04-20T05:16:18.814Z,883.36
2019-04-20T05:18:41.121Z,886.7
2019-04-20T05:21:04.182Z,889.04
2019-04-20T05:23:20.359Z,891.57
2019-04-20T05:25:10.489Z,893.88
2019-04-20T05:27:24.485Z,896.51
2019-04-20T05:28:58.791Z,899.54
2019-04-20T05:29:49.000Z,901.34
2019-04-20T05:30:54.494Z,903.51
2019-04-20T05:31:54.267Z,905.29
2019-04-20T05:32:56.652Z,907.79
2019-04-20T05:34:44.667Z,910.26
2019-04-20T05:37:14.886Z,913.73
2019-04-20T05:39:57.331Z,917.19
2019-04-20T05:42:09.002Z,920.38
2019-04-20T05:44:12.259Z,924.99
2019-04-20T05:46:00.784Z,942.38
2019-04-20T05:48:16.236Z,1000.51
2019-04-20T05:50:27.119Z,1031.73
2019-04-20T05:52:55.980Z,1058.41
2019-04-20T05:55:32.861Z,1081.12
2019-04-20T05:58:01.769Z,1094.49
2019-04-20T06:00:26.310Z,1103.14
2019-04-20T06:02:53.637Z,1111.09
2019-04-20T06:05:34.500Z,1120.44
2019-04-20T06:08:04.937Z,1130.11
2019-04-20T06:10:49.259Z,1136.21
2019-04-20T06:13:14.542Z,1139.38
2019-04-20T06:14:42.392Z,1140.88
2019-04-20T06:16:49.671Z,1142.57
2019-04-20T06:19:06.225Z,1144.03
2019-04-20T06:21:36.435Z,1145.08
2019-04-20T06:24:39.182Z,1145.33
2019-04-20T06:27:34.021Z,1144.97
2019-04-20T06:29:40.699Z,1144.06
2019-04-20T06:31:57.289Z,1142.87
2019-04-20T06:34:47.702Z,1140.87
2019-04-20T06:37:43.033Z,1138.24
2019-04-20T06:41:11.625Z,1134.41
2019-04-20T06:44:00.424Z,1129.99
2019-04-20T06:46:42.032Z,1125.85
2019-04-20T06:51:52.628Z,1118.95
2019-04-20T06:54:06.866Z,1115.54
2019-04-20T06:56:35.182Z,1112.07
2019-04-20T06:59:03.513Z,1107.43
2019-04-20T07:01:28.817Z,1103.85
2019-04-20T07:04:59.184Z,1097.93
2019-04-20T07:07:56.017Z,1091.12
2019-04-20T07:10:57.681Z,1083.05
2019-04-20T07:12:55.060Z,1081.49
2019-04-20T07:14:09.851Z,1082.93
2019-04-20T07:15:49.269Z,1083.62
2019-04-20T07:18:22.840Z,1082.07
2019-04-20T07:20:37.163Z,1077.29
2019-04-20T07:23:30.987Z,1070.84
2019-04-20T07:26:16.397Z,1067.82
2019-04-20T07:28:52.356Z,1065.51
2019-04-20T07:31:06.606Z,1063.53
2019-04-20T07:33:21.349Z,1060.62
2019-04-20T07:35:39.867Z,1058.36
2019-04-20T07:38:34.112Z,1056.89
2019-04-20T07:40:58.581Z,1057.4
2019-04-20T07:44:26.833Z,1056.88
2019-04-20T07:47:21.628Z,1053.1
2019-04-20T07:49:40.090Z,1050.52
2019-04-20T07:51:14.082Z,1048.15
2019-04-20T07:52:06.577Z,1047.53
2019-04-20T07:53:19.870Z,1046.75
2019-04-20T07:56:10.102Z,1044.6
2019-04-20T07:58:10.672Z,1043.33
2019-04-20T07:59:29.879Z,1044.61
2019-04-20T08:02:23.306Z,1045.23
2019-04-20T08:04:50.850Z,1044.39
2019-04-20T08:06:11.259Z,1042.45
2019-04-20T08:07:08.821Z,1041.17
2019-04-20T08:08:22.234Z,1039.98
2019-04-20T08:09:53.164Z,1037.94
2019-04-20T08:11:26.570Z,1035.22
2019-04-20T08:14:05.532Z,1034.36
2019-04-20T08:17:19.925Z,1025.82
2019-04-20T08:19:50.701Z,1018.56
2019-04-20T08:22:19.603Z,1015.03
2019-04-20T08:24:47.717Z,1010.73
2019-04-20T08:26:20.092Z,1007.06
2019-04-20T08:27:25.689Z,1005.03
2019-04-20T08:28:21.226Z,1001.83
2019-04-20T08:29:37.734Z,998.28
2019-04-20T08:31:32.150Z,993.51
2019-04-20T08:33:40.105Z,992.53
2019-04-20T08:36:45.107Z,984.11
2019-04-20T08:41:44.866Z,968.45
2019-04-20T08:44:59.765Z,961.03
2019-04-20T08:47:27.078Z,950.6
2019-04-20T08:50:02.937Z,939.46
2019-04-20T08:53:08.717Z,930.19
2019-04-20T08:55:14.384Z,922.74
2019-04-20T08:56:41.442Z,919.26
2019-04-20T08:57:31.884Z,917.46
2019-04-20T08:58:31.866Z,916.09
2019-04-20T08:59:33.715Z,916.28
2019-04-20T09:00:39.420Z,915.81
2019-04-20T09:01:34.058Z,914.33
2019-04-20T09:02:32.627Z,912.32
2019-04-20T09:03:43.646Z,909.56
2019-04-20T09:04:53.941Z,906.26
2019-04-20T09:06:15.167Z,901.58
2019-04-20T09:07:30.537Z,896.86
2019-04-20T09:08:50.199Z,894.91
2019-04-20T09:11:19.306Z,888.51
2019-04-20T09:13:18.515Z,883.74
2019-04-20T09:14:08.658Z,882.25
2019-04-20T09:15:08.227Z,881.65
2019-04-20T09:16:06.640Z,882.39
2019-04-20T09:17:09.156Z,881.78
2019-04-20T09:18:16.625Z,883.2
2019-04-20T09:19:12.627Z,885.81
2019-04-20T09:20:16.090Z,887.77
2019-04-20T09:21:28.441Z,889.28
2019-04-20T09:22:48.970Z,892.7
2019-04-20T09:25:17.583Z,894.83
2019-04-20T09:27:25.228Z,895.5
2019-04-20T09:28:37.025Z,893.04
2019-04-20T09:30:08.762Z,890.32
2019-04-20T09:31:46.815Z,887.84
2019-04-20T09:33:55.339Z,887.17
2019-04-20T09:35:57.539Z,889.86
2019-04-20T09:37:59.493Z,890.22
2019-04-20T09:39:24.491Z,888.94
2019-04-20T09:41:30.226Z,886.73
2019-04-20T09:42:10.166Z,884.27
2019-04-20T09:43:10.955Z,882.3
2019-04-20T09:44:10.985Z,880.8
2019-04-20T09:45:17.935Z,879.82
2019-04-20T09:46:10.550Z,879.37
2019-04-20T09:47:10.947Z,881.29
2019-04-20T09:48:15.611Z,885.93
2019-04-20T09:49:28.305Z,891.98
2019-04-20T09:51:19.938Z,904.6
2019-04-20T09:53:08.618Z,912.1
2019-04-20T09:55:02.333Z,917.48
2019-04-20T09:56:43.457Z,922.29
2019-04-20T09:58:15.238Z,924.41
2019-04-20T10:00:15.170Z,925.67
2019-04-20T10:01:43.582Z,923.15
2019-04-20T10:02:39.203Z,920.67
2019-04-20T10:03:37.151Z,917.75
2019-04-20T10:04:37.560Z,914.84
2019-04-20T10:05:37.844Z,912.2
2019-04-20T10:06:37.691Z,910.83
2019-04-20T10:07:38.684Z,907.63
2019-04-20T10:08:41.826Z,904.64
2019-04-20T10:09:41.565Z,902.85
2019-04-20T10:10:41.642Z,901.88
2019-04-20T10:11:37.621Z,902.01
2019-04-20T10:12:37.601Z,902.9
2019-04-20T10:13:38.283Z,904.78
2019-04-20T10:14:38.384Z,905.46
2019-04-20T10:15:37.504Z,905.8
2019-04-20T10:16:37.858Z,907.18
2019-04-20T10:17:38.533Z,908.83
2019-04-20T10:18:41.248Z,908.83
2019-04-20T10:19:39.380Z,908.07
2019-04-20T10:20:38.689Z,907.44
2019-04-20T10:22:02.494Z,906.84
2019-04-20T10:23:02.571Z,907.63
2019-04-20T10:24:02.541Z,908.75
2019-04-20T10:25:02.619Z,909.51
2019-04-20T10:26:02.534Z,912.23
2019-04-20T10:27:02.615Z,915.43
2019-04-20T10:28:01.436Z,917.29
2019-04-20T10:29:01.648Z,916.79
2019-04-20T10:30:04.518Z,917.03
2019-04-20T10:31:02.268Z,918.26
2019-04-20T10:32:06.684Z,919.43
2019-04-20T10:33:01.597Z,921.02
2019-04-20T10:34:01.722Z,921.28
2019-04-20T10:35:02.468Z,920.79
2019-04-20T10:36:01.553Z,919.41
2019-04-20T10:37:01.698Z,917.24
2019-04-20T10:38:01.465Z,913.37
2019-04-20T10:39:02.368Z,908.24
2019-04-20T10:40:02.755Z,902.61
2019-04-20T10:41:07.939Z,898.1
2019-04-20T10:42:04.130Z,896.46
2019-04-20T10:43:03.078Z,896.16
2019-04-20T10:44:02.853Z,896.01
2019-04-20T10:45:02.820Z,896.79
2019-04-20T10:46:02.683Z,896.01
2019-04-20T10:47:02.948Z,894.58
2019-04-20T10:48:03.333Z,891.37
2019-04-20T10:49:04.203Z,887.69
2019-04-20T10:50:03.104Z,884.4
2019-04-20T10:51:03.093Z,880.89
2019-04-20T10:52:02.037Z,877.42
2019-04-20T10:53:02.080Z,873.91
2019-04-20T10:54:02.469Z,871.25
2019-04-20T10:55:02.841Z,868.54
2019-04-20T10:56:03.318Z,866.26
2019-04-20T10:57:01.942Z,863.65
2019-04-20T10:58:01.904Z,863.67
2019-04-20T10:59:01.906Z,866.09
2019-04-20T11:00:01.906Z,869.25
2019-04-20T11:01:01.950Z,871.4
2019-04-20T11:02:01.908Z,872.5
2019-04-20T11:03:01.916Z,871.92
2019-04-20T11:04:02.948Z,870.54
2019-04-20T11:05:02.543Z,869.42
2019-04-20T11:06:02.688Z,868.52
2019-04-20T11:07:02.818Z,868.27
2019-04-20T11:08:02.228Z,866.35
2019-04-20T11:09:02.539Z,865.47
2019-04-20T11:10:11.007Z,865.29
2019-04-20T11:11:17.868Z,864.87
2019-04-20T11:12:12.546Z,863.62
2019-04-20T11:13:12.507Z,862.12
2019-04-20T11:14:16.151Z,860.56
2019-04-20T11:15:12.597Z,859.28
2019-04-20T11:16:12.626Z,859.72
2019-04-20T11:17:12.518Z,860.64
2019-04-20T11:18:13.363Z,861.06
2019-04-20T11:19:13.509Z,862.28
2019-04-20T11:20:12.941Z,863.95
2019-04-20T11:21:13.310Z,864.33
2019-04-20T11:22:12.650Z,863.46
2019-04-20T11:23:13.868Z,862.54
2019-04-20T11:24:12.541Z,862.69
2019-04-20T11:25:12.611Z,862.71
2019-04-20T11:26:13.957Z,862.37
2019-04-20T11:27:12.542Z,861.41
2019-04-20T11:28:12.644Z,860.45
2019-04-20T11:29:13.803Z,862.65
2019-04-20T11:30:14.002Z,866.6
2019-04-20T11:31:12.713Z,868.87
2019-04-20T11:32:14.168Z,871.7
2019-04-20T11:33:13.949Z,874.73
2019-04-20T11:34:14.770Z,875.99
2019-04-20T11:35:19.832Z,876.21
2019-04-20T11:36:12.894Z,874.83
2019-04-20T11:37:12.980Z,872.28
2019-04-20T11:38:15.139Z,871.09
2019-04-20T11:39:12.596Z,870.43
2019-04-20T11:40:12.908Z,867.72
2019-04-20T11:41:18.812Z,864.46
2019-04-20T11:42:13.736Z,861.6
2019-04-20T11:43:13.572Z,860.31
2019-04-20T11:44:13.742Z,860.57
2019-04-20T11:45:12.952Z,859.01
2019-04-20T11:46:12.641Z,856.53
2019-04-20T11:47:12.768Z,855.07
2019-04-20T11:48:13.659Z,853.88
2019-04-20T11:49:13.184Z,854.53
2019-04-20T11:50:13.661Z,856.06
2019-04-20T11:51:13.743Z,858.14
2019-04-20T11:52:13.363Z,859.92
2019-04-20T11:53:13.274Z,859.93
2019-04-20T11:57:47.146Z,869.71
2019-04-20T11:58:36.012Z,875.01
2019-04-20T11:59:34.955Z,877.96
2019-04-20T12:00:41.715Z,879.75
2019-04-20T12:01:41.182Z,881.44
2019-04-20T12:02:38.577Z,881.58
2019-04-20T12:03:46.678Z,881.86
2019-04-20T12:05:04.027Z,881.72
2019-04-20T12:05:59.700Z,881.03
2019-04-20T12:06:57.032Z,881.53
2019-04-20T12:07:56.187Z,883.01
2019-04-20T12:08:56.985Z,883.7
2019-04-20T12:09:58.363Z,883.81
2019-04-20T12:10:59.459Z,884.56
2019-04-20T12:12:24.254Z,884.02
2019-04-20T12:13:14.520Z,883.51
2019-04-20T12:14:12.706Z,884.04
2019-04-20T12:15:12.740Z,882.83
2019-04-20T12:16:13.821Z,880.71
2019-04-20T12:17:13.563Z,876.82
2019-04-20T12:18:13.720Z,871.38
2019-04-20T12:19:12.867Z,867.53
2019-04-20T12:20:12.528Z,865.06
2019-04-20T12:21:12.791Z,863.31
2019-04-20T12:22:13.770Z,864.35
2019-04-20T12:23:12.695Z,864.25
2019-04-20T12:24:12.574Z,862.47
2019-04-20T12:25:12.561Z,861.74
2019-04-20T12:26:13.013Z,863.55
2019-04-20T12:27:12.645Z,862.99
2019-04-20T12:28:13.650Z,860.69
2019-04-20T12:29:13.703Z,856.94
2019-04-20T12:30:12.658Z,853.58
2019-04-20T12:31:17.693Z,851.05
2019-04-20T12:32:12.802Z,847.27
2019-04-20T12:33:13.567Z,843.44
2019-04-20T12:34:12.749Z,840.15
2019-04-20T12:35:14.008Z,837.74
2019-04-20T12:36:12.735Z,837.57
2019-04-20T12:37:13.327Z,836.69
2019-04-20T12:38:12.766Z,835.24
2019-04-20T12:39:13.209Z,832.11
2019-04-20T12:40:12.651Z,829.05
2019-04-20T12:41:14.366Z,828.74
2019-04-20T12:42:13.029Z,830.32
2019-04-20T12:43:13.184Z,831.91
2019-04-20T12:44:14.067Z,834.46
2019-04-20T12:45:13.522Z,838.15
2019-04-20T12:46:16.319Z,841.35
2019-04-20T12:47:14.012Z,842.94
2019-04-20T12:48:13.468Z,844.75
2019-04-20T12:49:13.662Z,847.31
2019-04-20T12:50:13.749Z,851.74
2019-04-20T12:51:13.345Z,854.36
2019-04-20T12:52:12.656Z,855.45
2019-04-20T12:53:12.860Z,856.09
2019-04-20T12:54:12.683Z,857.18
2019-04-20T12:55:12.834Z,856.94
2019-04-20T12:56:14.658Z,855.55
2019-04-20T12:57:13.161Z,854.43
2019-04-20T12:58:12.733Z,852.84
2019-04-20T12:59:13.757Z,851.07
2019-04-20T13:00:12.726Z,848.93
2019-04-20T13:01:14.245Z,845.7
2019-04-20T13:02:13.419Z,842.59
2019-04-20T13:03:13.705Z,841.74
2019-04-20T13:04:14.116Z,840.65
2019-04-20T13:05:13.443Z,839.9
2019-04-20T13:06:13.819Z,839.74
2019-04-20T13:07:12.761Z,840.89
2019-04-20T13:08:13.654Z,842.54
2019-04-20T13:09:12.959Z,844.52
2019-04-20T13:10:13.659Z,845.89
2019-04-20T13:11:12.998Z,847.66
2019-04-20T13:12:13.863Z,848.99
2019-04-20T13:13:12.750Z,849.83
2019-04-20T13:14:12.673Z,850.32
2019-04-20T13:15:14.023Z,849.05
2019-04-20T13:16:12.727Z,847.17
2019-04-20T13:17:12.799Z,847.76
2019-04-20T13:18:12.779Z,847.91
2019-04-20T13:19:13.109Z,847.29
2019-04-20T13:20:13.879Z,845.94
2019-04-20T13:21:13.266Z,845.49
2019-04-20T13:22:12.980Z,846.84
2019-04-20T13:23:13.031Z,849.52
2019-04-20T13:24:13.543Z,850.34
2019-04-20T13:25:12.845Z,849.37
2019-04-20T13:26:13.945Z,848.21
2019-04-20T13:27:13.162Z,846.95
2019-04-20T13:28:12.882Z,845.39
2019-04-20T13:29:12.931Z,844.38
2019-04-20T13:30:13.207Z,843.36
2019-04-20T13:31:13.591Z,842.78
2019-04-20T13:32:13.890Z,841.9
2019-04-20T13:33:12.965Z,841.31
2019-04-20T13:34:13.244Z,840.33
2019-04-20T13:35:14.042Z,839.3
2019-04-20T13:36:12.701Z,837.42
2019-04-20T13:37:13.827Z,839.15
2019-04-20T13:38:13.910Z,841.24
2019-04-20T13:39:12.684Z,843.45
2019-04-20T13:40:12.690Z,845.74
2019-04-20T13:41:13.734Z,847.4
2019-04-20T13:42:19.023Z,848.23
2019-04-20T13:43:12.851Z,849.34
2019-04-20T13:44:13.726Z,849.8
2019-04-20T13:45:12.961Z,849.31
2019-04-20T13:46:13.282Z,849.47
2019-04-20T13:47:12.847Z,849.6
2019-04-20T13:48:12.934Z,850.28
2019-04-20T13:49:13.150Z,852.77
2019-04-20T13:50:14.315Z,855.29
2019-04-20T13:51:12.807Z,859.73
2019-04-20T13:52:12.924Z,863.42
2019-04-20T13:53:12.713Z,865.4
2019-04-20T13:54:16.232Z,864.86
2019-04-20T13:55:12.824Z,863.5
2019-04-20T13:56:14.014Z,860.94
2019-04-20T13:57:13.527Z,858.19
2019-04-20T13:58:13.882Z,855.88
2019-04-20T13:59:14.092Z,855.04
2019-04-20T14:00:13.762Z,854.42
2019-04-20T14:04:46.208Z,853.7
2019-04-20T14:05:45.207Z,853.69
2019-04-20T14:08:07.727Z,857.32
2019-04-20T14:09:08.001Z,858.42
2019-04-20T14:10:09.082Z,857.74
2019-04-20T14:11:07.688Z,855.8
2019-04-20T14:12:16.077Z,853.62
2019-04-20T14:13:14.797Z,851.55
2019-04-20T14:14:08.852Z,850.39
2019-04-20T14:15:09.177Z,850.14
2019-04-20T14:16:09.128Z,850.27
2019-04-20T14:17:08.829Z,853
2019-04-20T14:18:09.045Z,855.57
2019-04-20T14:19:09.257Z,856.98
2019-04-20T14:20:13.156Z,856.38
2019-04-20T14:21:10.056Z,854.86
2019-04-20T14:22:10.173Z,853.34
2019-04-20T14:23:09.448Z,852.88
2019-04-20T14:24:08.967Z,853.54
2019-04-20T14:25:09.083Z,854.96
2019-04-20T14:26:09.151Z,855.43
2019-04-20T14:27:08.880Z,855.86
2019-04-20T14:28:09.117Z,856.81
2019-04-20T14:29:09.025Z,856.71
2019-04-20T14:30:09.064Z,855.08
2019-04-20T14:31:09.843Z,854.03
2019-04-20T14:32:10.547Z,853.02
2019-04-20T14:33:08.847Z,852.07
2019-04-20T14:34:08.882Z,850.92
2019-04-20T14:35:09.165Z,849.85
2019-04-20T14:36:08.893Z,850.5
2019-04-20T14:37:08.905Z,850.66
2019-04-20T14:38:09.886Z,850.6
2019-04-20T14:39:10.049Z,849.81
2019-04-20T14:40:10.168Z,848.44
2019-04-20T14:41:08.880Z,849.33
2019-04-20T14:42:09.953Z,850.87
2019-04-20T14:43:08.991Z,852.12
2019-04-20T14:44:09.924Z,853.4
2019-04-20T14:45:08.981Z,854.74
2019-04-20T14:46:08.900Z,857.49
2019-04-20T14:47:09.762Z,858.45
2019-04-20T14:48:09.913Z,858.25
2019-04-20T14:49:08.895Z,857.63
2019-04-20T14:50:09.752Z,858.4
2019-04-20T14:51:09.759Z,859.15
2019-04-20T14:52:08.929Z,861.91
2019-04-20T14:53:09.461Z,864.25
2019-04-20T14:54:09.617Z,866.83
2019-04-20T14:55:08.889Z,868.42
2019-04-20T14:56:09.515Z,869.89
2019-04-20T14:57:09.636Z,870.41
2019-04-20T14:58:08.926Z,870.51
2019-04-20T14:59:09.597Z,870.26
2019-04-20T15:00:09.668Z,870.42
2019-04-20T15:01:08.931Z,871.2
2019-04-20T15:02:08.917Z,873.19
2019-04-20T15:03:10.108Z,873.93
2019-04-20T15:04:13.179Z,874.2
2019-04-20T15:05:08.897Z,874.52
2019-04-20T15:06:09.660Z,874.32
2019-04-20T15:07:08.923Z,873.5
2019-04-20T15:08:08.998Z,872.47
2019-04-20T15:09:09.001Z,873.06
2019-04-20T15:10:09.066Z,873.22
2019-04-20T15:11:09.225Z,873.18
2019-04-20T15:12:08.996Z,873.44
2019-04-20T15:13:09.984Z,873.4
2019-04-20T15:14:09.078Z,873.35
2019-04-20T15:15:10.224Z,874.37
2019-04-20T15:16:08.964Z,877.01
2019-04-20T15:17:09.018Z,879.66
2019-04-20T15:18:09.372Z,882.13
2019-04-20T15:19:09.579Z,884.76
2019-04-20T15:20:09.697Z,886.87
2019-04-20T15:21:09.288Z,888.63
2019-04-20T15:22:09.424Z,890.54
2019-04-20T15:23:09.595Z,891.81
2019-04-20T15:24:09.333Z,892.75
2019-04-20T15:25:09.561Z,894.39
2019-04-20T15:26:08.948Z,895.36
2019-04-20T15:27:10.150Z,897.56
2019-04-20T15:28:10.309Z,899.99
2019-04-20T15:29:10.366Z,902.17
2019-04-20T15:30:08.977Z,903.91
2019-04-20T15:31:10.070Z,904.91
2019-04-20T15:32:10.147Z,905.81
2019-04-20T15:33:09.249Z,906.33
2019-04-20T15:34:09.004Z,907.6
2019-04-20T15:35:09.118Z,910.37
2019-04-20T15:36:10.448Z,913.69
2019-04-20T15:37:09.962Z,916.03
2019-04-20T15:38:09.172Z,919.53
2019-04-20T15:39:09.354Z,922.29
2019-04-20T15:40:09.027Z,924.49
2019-04-20T15:41:11.931Z,926.78
2019-04-20T15:42:09.627Z,928.89
2019-04-20T15:43:14.283Z,930.58
2019-04-20T15:44:09.335Z,932.08
2019-04-20T15:45:09.390Z,933.86
2019-04-20T15:46:09.575Z,935.13
2019-04-20T15:47:09.130Z,936.55
2019-04-20T15:48:09.996Z,938.19
2019-04-20T15:49:10.184Z,939.2
2019-04-20T15:50:09.631Z,941.14
2019-04-20T15:51:09.910Z,941.8
2019-04-20T15:52:12.248Z,943.44
2019-04-20T15:53:09.019Z,945.16
2019-04-20T15:54:09.454Z,946.84
2019-04-20T15:55:18.118Z,948.95
2019-04-20T15:56:11.302Z,951.41
2019-04-20T15:57:14.876Z,953.96
2019-04-20T15:58:10.217Z,956.42
2019-04-20T15:59:10.422Z,959.16
2019-04-20T16:00:10.727Z,962.11
2019-04-20T16:01:10.351Z,963.78
2019-04-20T16:02:09.474Z,966.14
2019-04-20T16:03:09.596Z,968.16
2019-04-20T16:04:11.647Z,970.38
2019-04-20T16:05:10.166Z,972.46
2019-04-20T16:06:09.470Z,973.67
2019-04-20T16:07:10.965Z,974.93
2019-04-20T16:08:10.591Z,976.31
2019-04-20T16:09:10.289Z,977.96
2019-04-20T16:10:09.497Z,979.44
2019-04-20T16:11:09.270Z,981.08
2019-04-20T16:12:09.077Z,982.82
2019-04-20T16:13:16.938Z,984.96
2019-04-20T16:14:09.184Z,986.38
2019-04-20T16:15:09.482Z,988.96
2019-04-20T16:16:09.926Z,991.59
2019-04-20T16:17:10.887Z,993.49
2019-04-20T16:18:10.180Z,995.54
2019-04-20T16:19:16.256Z,997.49
2019-04-20T16:20:21.680Z,999.16
2019-04-20T16:21:22.026Z,1000.94
2019-04-20T16:22:17.760Z,1002.86
2019-04-20T16:23:18.623Z,1004.97
2019-04-20T16:24:18.946Z,1006.83
2019-04-20T16:25:19.203Z,1008.76
2019-04-20T16:26:17.884Z,1010.24
2019-04-20T16:27:17.981Z,1012.14
2019-04-20T16:28:17.670Z,1013.98
2019-04-20T16:29:17.805Z,1015.9
2019-04-20T16:30:17.996Z,1017.84
2019-04-20T16:31:18.307Z,1019.21
2019-04-20T16:32:18.430Z,1020.64
2019-04-20T16:33:18.659Z,1021.78
2019-04-20T16:34:17.964Z,1022.92
2019-04-20T16:35:18.243Z,1023.45
2019-04-20T16:36:18.636Z,1024.48